KBYH/BYH METAR and TAF weather

Enter ICAO airport designator
Station Type Date Time Source
KBYH METAR 2022/06/17 20:59 UTC NOAA

KBYH 172059Z 00000KT 10SM SCT150 35/23 A2997 RMK LAST


Station Type Date Time Source
KBYH Decoded METAR 2022/06/17 20:59 UTC NOAA

Eaker Air Force Base, AR, United States (KBYH) 35-58N 089-57W
Jun 17, 2022 - 04:59 PM EDT / 2022.06.17 2059 UTC
Wind: Calm:0
Visibility: 10 mile(s):0
Sky conditions: partly cloudy
Temperature: 95 F (35 C)
Heat index: 104.5 F (40.3 C):1
Dew Point: 73 F (23 C)
Relative Humidity: 49%
Pressure (altimeter): 29.97 in. Hg (1014 hPa)
ob: KBYH 172059Z 00000KT 10SM SCT150 35/23 A2997 RMK LAST
cycle: 21

Station Type Date Time Source
KBYH TAF UTC NOAA

Error!

Example: see airport list